sensor_id;sensor_type;location;lat;lon;timestamp;temperature;humidity
66343;DHT22;53144;51.524;5.080;2023-07-13T00:01:27;15.15;81.99
66343;DHT22;53144;51.524;5.080;2023-07-13T00:03:53;15.15;82.09
66343;DHT22;53144;51.524;5.080;2023-07-13T00:06:18;15.13;82.66
66343;DHT22;53144;51.524;5.080;2023-07-13T00:08:45;15.16;82.04
66343;DHT22;53144;51.524;5.080;2023-07-13T00:11:10;15.16;82.25
66343;DHT22;53144;51.524;5.080;2023-07-13T00:13:36;15.10;82.35
66343;DHT22;53144;51.524;5.080;2023-07-13T00:16:04;15.10;82.95
66343;DHT22;53144;51.524;5.080;2023-07-13T00:18:30;15.10;82.66
66343;DHT22;53144;51.524;5.080;2023-07-13T00:20:56;15.08;82.91
66343;DHT22;53144;51.524;5.080;2023-07-13T00:23:30;15.10;83.28
66343;DHT22;53144;51.524;5.080;2023-07-13T00:25:56;15.06;83.27
66343;DHT22;53144;51.524;5.080;2023-07-13T00:28:22;15.08;83.03
66343;DHT22;53144;51.524;5.080;2023-07-13T00:30:48;15.06;83.02
66343;DHT22;53144;51.524;5.080;2023-07-13T00:33:13;15.02;83.37
66343;DHT22;53144;51.524;5.080;2023-07-13T00:35:38;14.99;83.85
66343;DHT22;53144;51.524;5.080;2023-07-13T00:38:05;14.98;83.61
66343;DHT22;53144;51.524;5.080;2023-07-13T00:40:30;14.92;83.67
66343;DHT22;53144;51.524;5.080;2023-07-13T00:42:58;14.99;84.14
66343;DHT22;53144;51.524;5.080;2023-07-13T00:47:49;14.92;84.09
66343;DHT22;53144;51.524;5.080;2023-07-13T00:50:16;14.91;84.42
66343;DHT22;53144;51.524;5.080;2023-07-13T00:52:45;14.92;84.33
66343;DHT22;53144;51.524;5.080;2023-07-13T00:55:11;14.85;84.97
66343;DHT22;53144;51.524;5.080;2023-07-13T00:57:38;14.84;85.03
66343;DHT22;53144;51.524;5.080;2023-07-13T01:00:06;14.89;85.48
66343;DHT22;53144;51.524;5.080;2023-07-13T01:02:35;14.85;85.15
66343;DHT22;53144;51.524;5.080;2023-07-13T01:05:01;14.72;85.51
66343;DHT22;53144;51.524;5.080;2023-07-13T01:07:27;14.67;85.74
66343;DHT22;53144;51.524;5.080;2023-07-13T01:09:52;14.71;85.94
66343;DHT22;53144;51.524;5.080;2023-07-13T01:12:18;14.60;86.10
66343;DHT22;53144;51.524;5.080;2023-07-13T01:14:43;14.52;86.24
66343;DHT22;53144;51.524;5.080;2023-07-13T01:17:10;14.48;86.63
66343;DHT22;53144;51.524;5.080;2023-07-13T01:19:38;14.51;86.45
66343;DHT22;53144;51.524;5.080;2023-07-13T01:22:30;14.48;86.69
66343;DHT22;53144;51.524;5.080;2023-07-13T01:24:57;14.42;86.96
66343;DHT22;53144;51.524;5.080;2023-07-13T01:27:23;14.40;87.19
66343;DHT22;53144;51.524;5.080;2023-07-13T01:29:51;14.40;87.11
66343;DHT22;53144;51.524;5.080;2023-07-13T01:32:19;14.40;87.35
66343;DHT22;53144;51.524;5.080;2023-07-13T01:34:48;14.31;87.34
66343;DHT22;53144;51.524;5.080;2023-07-13T01:37:14;14.33;87.71
66343;DHT22;53144;51.524;5.080;2023-07-13T01:39:39;14.26;87.41
66343;DHT22;53144;51.524;5.080;2023-07-13T01:42:05;14.29;87.78
66343;DHT22;53144;51.524;5.080;2023-07-13T01:44:30;14.23;87.78
66343;DHT22;53144;51.524;5.080;2023-07-13T01:46:56;14.26;87.75
66343;DHT22;53144;51.524;5.080;2023-07-13T01:49:21;14.23;87.97
66343;DHT22;53144;51.524;5.080;2023-07-13T01:51:46;14.12;87.90
66343;DHT22;53144;51.524;5.080;2023-07-13T01:54:12;14.03;88.21
66343;DHT22;53144;51.524;5.080;2023-07-13T01:56:37;14.05;88.36
66343;DHT22;53144;51.524;5.080;2023-07-13T01:59:04;14.06;88.51
66343;DHT22;53144;51.524;5.080;2023-07-13T02:01:29;14.12;88.65
66343;DHT22;53144;51.524;5.080;2023-07-13T02:03:54;14.13;88.74
66343;DHT22;53144;51.524;5.080;2023-07-13T02:06:20;14.14;88.84
66343;DHT22;53144;51.524;5.080;2023-07-13T02:08:46;14.17;88.87
66343;DHT22;53144;51.524;5.080;2023-07-13T02:11:11;14.14;88.76
66343;DHT22;53144;51.524;5.080;2023-07-13T02:13:37;14.13;88.76
66343;DHT22;53144;51.524;5.080;2023-07-13T02:16:02;14.02;89.10
66343;DHT22;53144;51.524;5.080;2023-07-13T02:18:28;14.05;89.23
66343;DHT22;53144;51.524;5.080;2023-07-13T02:20:53;13.92;89.67
66343;DHT22;53144;51.524;5.080;2023-07-13T02:23:18;13.89;89.95
66343;DHT22;53144;51.524;5.080;2023-07-13T02:25:44;13.89;89.93
66343;DHT22;53144;51.524;5.080;2023-07-13T02:28:10;13.89;90.03
66343;DHT22;53144;51.524;5.080;2023-07-13T02:30:35;13.83;90.14
66343;DHT22;53144;51.524;5.080;2023-07-13T02:33:00;13.86;90.35
66343;DHT22;53144;51.524;5.080;2023-07-13T02:35:26;13.85;90.46
66343;DHT22;53144;51.524;5.080;2023-07-13T02:37:51;13.85;90.77
66343;DHT22;53144;51.524;5.080;2023-07-13T02:40:16;13.83;90.65
66343;DHT22;53144;51.524;5.080;2023-07-13T02:42:42;13.85;90.74
66343;DHT22;53144;51.524;5.080;2023-07-13T02:45:08;13.85;90.77
66343;DHT22;53144;51.524;5.080;2023-07-13T02:47:35;13.83;90.91
66343;DHT22;53144;51.524;5.080;2023-07-13T02:50:00;13.87;90.94
66343;DHT22;53144;51.524;5.080;2023-07-13T02:52:27;13.86;91.07
66343;DHT22;53144;51.524;5.080;2023-07-13T02:54:52;13.83;91.07
66343;DHT22;53144;51.524;5.080;2023-07-13T02:57:18;13.85;91.13
66343;DHT22;53144;51.524;5.080;2023-07-13T02:59:43;13.78;91.31
66343;DHT22;53144;51.524;5.080;2023-07-13T03:02:08;13.73;91.53
66343;DHT22;53144;51.524;5.080;2023-07-13T03:04:36;13.71;91.72
66343;DHT22;53144;51.524;5.080;2023-07-13T03:07:01;13.72;91.88
66343;DHT22;53144;51.524;5.080;2023-07-13T03:09:27;13.69;92.01
66343;DHT22;53144;51.524;5.080;2023-07-13T03:11:55;13.68;92.01
66343;DHT22;53144;51.524;5.080;2023-07-13T03:14:22;13.69;92.08
66343;DHT22;53144;51.524;5.080;2023-07-13T03:16:48;13.65;92.15
66343;DHT22;53144;51.524;5.080;2023-07-13T03:19:13;13.61;92.29
66343;DHT22;53144;51.524;5.080;2023-07-13T03:21:39;13.58;92.44
66343;DHT22;53144;51.524;5.080;2023-07-13T03:24:04;13.57;92.55
66343;DHT22;53144;51.524;5.080;2023-07-13T03:26:30;13.47;92.95
66343;DHT22;53144;51.524;5.080;2023-07-13T03:28:55;13.48;93.05
66343;DHT22;53144;51.524;5.080;2023-07-13T03:31:22;13.45;93.04
66343;DHT22;53144;51.524;5.080;2023-07-13T03:33:48;13.41;93.07
66343;DHT22;53144;51.524;5.080;2023-07-13T03:36:15;13.37;93.10
66343;DHT22;53144;51.524;5.080;2023-07-13T03:38:41;13.25;93.90
66343;DHT22;53144;51.524;5.080;2023-07-13T03:41:06;13.22;94.12
66343;DHT22;53144;51.524;5.080;2023-07-13T03:43:32;13.27;94.21
66343;DHT22;53144;51.524;5.080;2023-07-13T03:45:57;13.28;94.13
66343;DHT22;53144;51.524;5.080;2023-07-13T03:48:23;13.32;94.23
66343;DHT22;53144;51.524;5.080;2023-07-13T03:50:48;13.31;94.18
66343;DHT22;53144;51.524;5.080;2023-07-13T03:53:15;13.32;94.39
66343;DHT22;53144;51.524;5.080;2023-07-13T03:55:40;13.35;94.42
66343;DHT22;53144;51.524;5.080;2023-07-13T04:00:53;13.48;94.27
66343;DHT22;53144;51.524;5.080;2023-07-13T04:03:19;13.55;94.10
66343;DHT22;53144;51.524;5.080;2023-07-13T04:05:44;13.58;94.05
66343;DHT22;53144;51.524;5.080;2023-07-13T04:08:10;13.66;93.99
66343;DHT22;53144;51.524;5.080;2023-07-13T04:10:35;13.62;94.31
66343;DHT22;53144;51.524;5.080;2023-07-13T04:13:00;13.68;94.28
66343;DHT22;53144;51.524;5.080;2023-07-13T04:15:29;13.75;94.15
66343;DHT22;53144;51.524;5.080;2023-07-13T04:17:55;13.80;94.17
66343;DHT22;53144;51.524;5.080;2023-07-13T04:20:20;13.86;93.97
66343;DHT22;53144;51.524;5.080;2023-07-13T04:22:47;13.86;94.05
66343;DHT22;53144;51.524;5.080;2023-07-13T04:25:12;13.95;94.07
66343;DHT22;53144;51.524;5.080;2023-07-13T04:27:37;14.03;93.87
66343;DHT22;53144;51.524;5.080;2023-07-13T04:30:05;14.05;93.76
66343;DHT22;53144;51.524;5.080;2023-07-13T04:32:31;14.16;93.66
66343;DHT22;53144;51.524;5.080;2023-07-13T04:34:57;14.24;93.53
66343;DHT22;53144;51.524;5.080;2023-07-13T04:37:27;14.33;93.31
66343;DHT22;53144;51.524;5.080;2023-07-13T04:39:52;14.31;93.27
66343;DHT22;53144;51.524;5.080;2023-07-13T04:42:18;14.42;93.24
66343;DHT22;53144;51.524;5.080;2023-07-13T04:44:50;14.45;93.21
66343;DHT22;53144;51.524;5.080;2023-07-13T04:47:16;14.54;93.02
66343;DHT22;53144;51.524;5.080;2023-07-13T04:49:41;14.61;93.17
66343;DHT22;53144;51.524;5.080;2023-07-13T04:52:07;14.68;92.95
66343;DHT22;53144;51.524;5.080;2023-07-13T04:54:33;14.71;92.83
66343;DHT22;53144;51.524;5.080;2023-07-13T04:56:59;14.78;92.66
66343;DHT22;53144;51.524;5.080;2023-07-13T04:59:24;14.84;92.72
66343;DHT22;53144;51.524;5.080;2023-07-13T05:01:49;14.87;92.87
66343;DHT22;53144;51.524;5.080;2023-07-13T05:04:15;14.85;92.69
66343;DHT22;53144;51.524;5.080;2023-07-13T05:06:40;14.91;93.03
66343;DHT22;53144;51.524;5.080;2023-07-13T05:09:06;15.00;92.77
66343;DHT22;53144;51.524;5.080;2023-07-13T05:11:32;15.08;92.32
66343;DHT22;53144;51.524;5.080;2023-07-13T05:13:58;15.13;92.33
66343;DHT22;53144;51.524;5.080;2023-07-13T05:16:23;15.12;92.19
66343;DHT22;53144;51.524;5.080;2023-07-13T05:18:48;15.15;92.22
66343;DHT22;53144;51.524;5.080;2023-07-13T05:21:14;15.18;92.37
66343;DHT22;53144;51.524;5.080;2023-07-13T05:23:40;15.35;92.31
66343;DHT22;53144;51.524;5.080;2023-07-13T05:26:07;15.43;92.08
66343;DHT22;53144;51.524;5.080;2023-07-13T05:28:32;15.50;92.35
66343;DHT22;53144;51.524;5.080;2023-07-13T05:30:58;15.53;91.90
66343;DHT22;53144;51.524;5.080;2023-07-13T05:33:24;15.63;91.69
66343;DHT22;53144;51.524;5.080;2023-07-13T05:35:49;15.60;91.34
66343;DHT22;53144;51.524;5.080;2023-07-13T05:38:15;15.61;91.51
66343;DHT22;53144;51.524;5.080;2023-07-13T05:40:43;15.64;91.62
66343;DHT22;53144;51.524;5.080;2023-07-13T05:43:08;15.71;91.65
66343;DHT22;53144;51.524;5.080;2023-07-13T05:45:34;15.80;91.20
66343;DHT22;53144;51.524;5.080;2023-07-13T05:47:59;15.80;91.22
66343;DHT22;53144;51.524;5.080;2023-07-13T05:50:26;15.85;91.18
66343;DHT22;53144;51.524;5.080;2023-07-13T05:52:51;15.87;90.87
66343;DHT22;53144;51.524;5.080;2023-07-13T05:55:17;15.88;90.76
66343;DHT22;53144;51.524;5.080;2023-07-13T05:57:43;16.01;90.82
66343;DHT22;53144;51.524;5.080;2023-07-13T06:00:12;15.97;90.46
66343;DHT22;53144;51.524;5.080;2023-07-13T06:02:40;16.06;90.94
66343;DHT22;53144;51.524;5.080;2023-07-13T06:05:06;16.06;90.56
66343;DHT22;53144;51.524;5.080;2023-07-13T06:07:31;16.19;90.79
66343;DHT22;53144;51.524;5.080;2023-07-13T06:09:57;16.22;90.13
66343;DHT22;53144;51.524;5.080;2023-07-13T06:12:24;16.25;90.15
66343;DHT22;53144;51.524;5.080;2023-07-13T06:14:50;16.24;89.90
66343;DHT22;53144;51.524;5.080;2023-07-13T06:17:15;16.28;89.65
66343;DHT22;53144;51.524;5.080;2023-07-13T06:19:40;16.38;90.14
66343;DHT22;53144;51.524;5.080;2023-07-13T06:22:06;16.32;89.44
66343;DHT22;53144;51.524;5.080;2023-07-13T06:24:31;16.39;89.52
66343;DHT22;53144;51.524;5.080;2023-07-13T06:26:56;16.39;89.23
66343;DHT22;53144;51.524;5.080;2023-07-13T06:29:22;16.48;89.31
66343;DHT22;53144;51.524;5.080;2023-07-13T06:31:47;16.42;89.14
66343;DHT22;53144;51.524;5.080;2023-07-13T06:34:13;16.46;89.37
66343;DHT22;53144;51.524;5.080;2023-07-13T06:36:38;16.60;89.37
66343;DHT22;53144;51.524;5.080;2023-07-13T06:39:04;16.60;88.87
66343;DHT22;53144;51.524;5.080;2023-07-13T06:41:29;16.70;88.94
66343;DHT22;53144;51.524;5.080;2023-07-13T06:43:56;16.63;88.63
66343;DHT22;53144;51.524;5.080;2023-07-13T06:46:22;16.67;88.77
66343;DHT22;53144;51.524;5.080;2023-07-13T06:48:48;16.51;88.40
66343;DHT22;53144;51.524;5.080;2023-07-13T06:51:13;16.56;88.87
66343;DHT22;53144;51.524;5.080;2023-07-13T06:53:39;16.55;88.82
66343;DHT22;53144;51.524;5.080;2023-07-13T06:56:04;16.57;88.64
66343;DHT22;53144;51.524;5.080;2023-07-13T06:58:30;16.63;89.00
66343;DHT22;53144;51.524;5.080;2023-07-13T07:00:56;16.72;88.10
66343;DHT22;53144;51.524;5.080;2023-07-13T07:03:21;17.03;88.27
66343;DHT22;53144;51.524;5.080;2023-07-13T07:05:46;17.44;88.16
66343;DHT22;53144;51.524;5.080;2023-07-13T07:08:12;17.44;86.45
66343;DHT22;53144;51.524;5.080;2023-07-13T07:10:37;17.69;86.53
66343;DHT22;53144;51.524;5.080;2023-07-13T07:13:03;17.53;85.65
66343;DHT22;53144;51.524;5.080;2023-07-13T07:15:29;17.30;85.69
66343;DHT22;53144;51.524;5.080;2023-07-13T07:17:55;17.56;86.56
66343;DHT22;53144;51.524;5.080;2023-07-13T07:20:20;17.59;85.98
66343;DHT22;53144;51.524;5.080;2023-07-13T07:22:46;17.92;85.29
66343;DHT22;53144;51.524;5.080;2023-07-13T07:25:12;18.17;83.23
66343;DHT22;53144;51.524;5.080;2023-07-13T07:27:37;18.21;82.67
66343;DHT22;53144;51.524;5.080;2023-07-13T07:30:03;17.75;84.32
66343;DHT22;53144;51.524;5.080;2023-07-13T07:32:30;17.79;84.14
66343;DHT22;53144;51.524;5.080;2023-07-13T07:34:57;17.69;84.11
66343;DHT22;53144;51.524;5.080;2023-07-13T07:37:22;17.83;84.97
66343;DHT22;53144;51.524;5.080;2023-07-13T07:39:48;17.96;83.87
66343;DHT22;53144;51.524;5.080;2023-07-13T07:42:13;18.23;83.79
66343;DHT22;53144;51.524;5.080;2023-07-13T07:44:40;18.29;82.51
66343;DHT22;53144;51.524;5.080;2023-07-13T07:47:06;18.52;81.97
66343;DHT22;53144;51.524;5.080;2023-07-13T07:49:32;18.52;81.13
66343;DHT22;53144;51.524;5.080;2023-07-13T07:51:57;18.47;81.34
66343;DHT22;53144;51.524;5.080;2023-07-13T07:54:22;18.44;82.50
66343;DHT22;53144;51.524;5.080;2023-07-13T07:56:48;18.69;81.33
66343;DHT22;53144;51.524;5.080;2023-07-13T07:59:13;18.79;79.73
66343;DHT22;53144;51.524;5.080;2023-07-13T08:01:39;18.67;79.51
66343;DHT22;53144;51.524;5.080;2023-07-13T08:04:04;18.47;80.02
66343;DHT22;53144;51.524;5.080;2023-07-13T08:06:31;18.55;80.40
66343;DHT22;53144;51.524;5.080;2023-07-13T08:08:58;18.78;80.94
66343;DHT22;53144;51.524;5.080;2023-07-13T08:11:24;19.06;81.00
66343;DHT22;53144;51.524;5.080;2023-07-13T08:13:50;18.96;79.75
66343;DHT22;53144;51.524;5.080;2023-07-13T08:16:15;18.98;80.88
66343;DHT22;53144;51.524;5.080;2023-07-13T08:18:41;19.12;79.33
66343;DHT22;53144;51.524;5.080;2023-07-13T08:21:07;19.39;80.29
66343;DHT22;53144;51.524;5.080;2023-07-13T08:23:34;19.49;78.61
66343;DHT22;53144;51.524;5.080;2023-07-13T08:26:00;19.50;78.47
66343;DHT22;53144;51.524;5.080;2023-07-13T08:28:27;19.47;76.99
66343;DHT22;53144;51.524;5.080;2023-07-13T08:30:53;19.20;77.04
66343;DHT22;53144;51.524;5.080;2023-07-13T08:33:20;19.27;77.13
66343;DHT22;53144;51.524;5.080;2023-07-13T08:35:49;19.45;77.24
66343;DHT22;53144;51.524;5.080;2023-07-13T08:38:16;19.51;77.09
66343;DHT22;53144;51.524;5.080;2023-07-13T08:40:50;19.49;74.72
66343;DHT22;53144;51.524;5.080;2023-07-13T08:43:28;19.78;77.04
66343;DHT22;53144;51.524;5.080;2023-07-13T08:46:02;19.66;76.08
66343;DHT22;53144;51.524;5.080;2023-07-13T08:48:44;19.74;76.41
66343;DHT22;53144;51.524;5.080;2023-07-13T08:51:55;19.95;76.83
66343;DHT22;53144;51.524;5.080;2023-07-13T08:54:29;20.01;74.97
66343;DHT22;53144;51.524;5.080;2023-07-13T08:56:57;19.92;74.78
66343;DHT22;53144;51.524;5.080;2023-07-13T08:59:27;19.98;75.81
66343;DHT22;53144;51.524;5.080;2023-07-13T09:04:54;19.79;76.75
66343;DHT22;53144;51.524;5.080;2023-07-13T09:07:24;19.77;76.64
66343;DHT22;53144;51.524;5.080;2023-07-13T09:10:29;19.67;78.27
66343;DHT22;53144;51.524;5.080;2023-07-13T09:13:07;19.46;76.90
66343;DHT22;53144;51.524;5.080;2023-07-13T09:15:41;19.88;75.99
66343;DHT22;53144;51.524;5.080;2023-07-13T09:18:13;20.47;76.14
66343;DHT22;53144;51.524;5.080;2023-07-13T09:20:56;20.76;73.88
66343;DHT22;53144;51.524;5.080;2023-07-13T09:23:24;20.98;71.02
66343;DHT22;53144;51.524;5.080;2023-07-13T09:25:57;20.47;73.97
66343;DHT22;53144;51.524;5.080;2023-07-13T09:28:33;20.35;74.50
66343;DHT22;53144;51.524;5.080;2023-07-13T09:31:24;20.05;74.36
66343;DHT22;53144;51.524;5.080;2023-07-13T09:33:52;20.02;73.95
66343;DHT22;53144;51.524;5.080;2023-07-13T09:38:44;20.87;70.62
66343;DHT22;53144;51.524;5.080;2023-07-13T09:41:41;20.74;69.79
66343;DHT22;53144;51.524;5.080;2023-07-13T09:44:16;21.32;69.76
66343;DHT22;53144;51.524;5.080;2023-07-13T09:46:47;21.48;68.79
66343;DHT22;53144;51.524;5.080;2023-07-13T09:49:17;21.10;69.40
66343;DHT22;53144;51.524;5.080;2023-07-13T09:51:43;20.74;69.79
66343;DHT22;53144;51.524;5.080;2023-07-13T09:54:24;20.09;72.21
66343;DHT22;53144;51.524;5.080;2023-07-13T09:57:00;20.08;73.06
66343;DHT22;53144;51.524;5.080;2023-07-13T09:59:30;20.18;73.41
66343;DHT22;53144;51.524;5.080;2023-07-13T10:01:56;20.19;72.46
66343;DHT22;53144;51.524;5.080;2023-07-13T10:04:31;19.94;75.74
66343;DHT22;53144;51.524;5.080;2023-07-13T10:07:08;19.22;79.88
66343;DHT22;53144;51.524;5.080;2023-07-13T10:09:34;19.08;83.78
66343;DHT22;53144;51.524;5.080;2023-07-13T10:12:00;18.94;84.09
66343;DHT22;53144;51.524;5.080;2023-07-13T10:14:27;18.91;84.43
66343;DHT22;53144;51.524;5.080;2023-07-13T10:17:00;18.91;84.10
66343;DHT22;53144;51.524;5.080;2023-07-13T10:19:32;18.98;81.07
66343;DHT22;53144;51.524;5.080;2023-07-13T10:24:39;20.22;79.53
66343;DHT22;53144;51.524;5.080;2023-07-13T10:27:25;20.70;74.97
66343;DHT22;53144;51.524;5.080;2023-07-13T10:30:42;21.23;75.32
66343;DHT22;53144;51.524;5.080;2023-07-13T10:32:51;21.71;71.81
66343;DHT22;53144;51.524;5.080;2023-07-13T10:35:19;22.10;69.28
66343;DHT22;53144;51.524;5.080;2023-07-13T10:40:26;21.49;68.25
66343;DHT22;53144;51.524;5.080;2023-07-13T10:42:56;20.94;70.30
66343;DHT22;53144;51.524;5.080;2023-07-13T10:45:23;20.42;74.11
66343;DHT22;53144;51.524;5.080;2023-07-13T10:47:51;20.39;71.78
66343;DHT22;53144;51.524;5.080;2023-07-13T10:50:27;21.52;70.00
66343;DHT22;53144;51.524;5.080;2023-07-13T10:52:55;22.67;68.47
66343;DHT22;53144;51.524;5.080;2023-07-13T10:55:56;23.61;63.72
66343;DHT22;53144;51.524;5.080;2023-07-13T11:01:10;23.49;62.74
66343;DHT22;53144;51.524;5.080;2023-07-13T11:03:50;23.82;59.28
66343;DHT22;53144;51.524;5.080;2023-07-13T11:09:18;25.39;61.99
66343;DHT22;53144;51.524;5.080;2023-07-13T11:11:44;23.67;61.41
66343;DHT22;53144;51.524;5.080;2023-07-13T11:14:35;22.44;64.86
66343;DHT22;53144;51.524;5.080;2023-07-13T11:17:46;21.20;67.22
66343;DHT22;53144;51.524;5.080;2023-07-13T11:22:50;21.41;65.16
66343;DHT22;53144;51.524;5.080;2023-07-13T11:27:51;21.65;63.17
66343;DHT22;53144;51.524;5.080;2023-07-13T11:35:57;21.56;64.75
66343;DHT22;53144;51.524;5.080;2023-07-13T11:38:35;21.90;66.82
66343;DHT22;53144;51.524;5.080;2023-07-13T11:41:04;22.55;63.53
66343;DHT22;53144;51.524;5.080;2023-07-13T11:43:29;24.18;59.42
66343;DHT22;53144;51.524;5.080;2023-07-13T11:45:55;24.49;58.85
66343;DHT22;53144;51.524;5.080;2023-07-13T11:50:56;24.42;55.14
66343;DHT22;53144;51.524;5.080;2023-07-13T11:53:23;24.21;55.52
66343;DHT22;53144;51.524;5.080;2023-07-13T11:55:51;25.42;51.65
66343;DHT22;53144;51.524;5.080;2023-07-13T11:58:21;24.76;53.87
66343;DHT22;53144;51.524;5.080;2023-07-13T12:00:49;24.70;55.78
66343;DHT22;53144;51.524;5.080;2023-07-13T12:03:19;23.66;58.30
66343;DHT22;53144;51.524;5.080;2023-07-13T12:06:05;22.75;58.23
66343;DHT22;53144;51.524;5.080;2023-07-13T12:08:39;22.41;61.04
66343;DHT22;53144;51.524;5.080;2023-07-13T12:11:14;21.97;62.62
66343;DHT22;53144;51.524;5.080;2023-07-13T12:13:40;21.73;63.11
66343;DHT22;53144;51.524;5.080;2023-07-13T12:16:14;21.82;62.10
66343;DHT22;53144;51.524;5.080;2023-07-13T12:18:42;21.63;61.91
66343;DHT22;53144;51.524;5.080;2023-07-13T12:21:13;21.90;62.36
66343;DHT22;53144;51.524;5.080;2023-07-13T12:23:39;23.19;58.69
66343;DHT22;53144;51.524;5.080;2023-07-13T12:26:06;23.36;56.27
66343;DHT22;53144;51.524;5.080;2023-07-13T12:28:38;23.43;56.53
66343;DHT22;53144;51.524;5.080;2023-07-13T12:34:11;24.00;54.87
66343;DHT22;53144;51.524;5.080;2023-07-13T12:36:40;23.40;55.41
66343;DHT22;53144;51.524;5.080;2023-07-13T12:39:34;22.91;57.35
66343;DHT22;53144;51.524;5.080;2023-07-13T12:42:20;23.42;55.95
66343;DHT22;53144;51.524;5.080;2023-07-13T12:44:48;22.58;57.06
66343;DHT22;53144;51.524;5.080;2023-07-13T12:47:15;22.39;58.95
66343;DHT22;53144;51.524;5.080;2023-07-13T12:50:02;22.21;59.44
66343;DHT22;53144;51.524;5.080;2023-07-13T12:52:33;21.76;62.00
66343;DHT22;53144;51.524;5.080;2023-07-13T12:55:07;21.55;64.61
66343;DHT22;53144;51.524;5.080;2023-07-13T13:00:36;20.55;72.01
66343;DHT22;53144;51.524;5.080;2023-07-13T13:03:31;20.28;71.30
66343;DHT22;53144;51.524;5.080;2023-07-13T13:08:49;19.95;68.82
66343;DHT22;53144;51.524;5.080;2023-07-13T13:11:16;19.98;67.22
66343;DHT22;53144;51.524;5.080;2023-07-13T13:13:44;20.08;67.01
66343;DHT22;53144;51.524;5.080;2023-07-13T13:16:32;20.08;66.88
66343;DHT22;53144;51.524;5.080;2023-07-13T13:19:17;19.91;66.72
66343;DHT22;53144;51.524;5.080;2023-07-13T13:21:44;19.94;67.18
66343;DHT22;53144;51.524;5.080;2023-07-13T13:24:15;19.87;67.00
66343;DHT22;53144;51.524;5.080;2023-07-13T13:26:41;20.12;66.76
66343;DHT22;53144;51.524;5.080;2023-07-13T13:29:15;20.04;67.40
66343;DHT22;53144;51.524;5.080;2023-07-13T13:31:42;20.07;67.35
66343;DHT22;53144;51.524;5.080;2023-07-13T13:34:12;20.32;68.04
66343;DHT22;53144;51.524;5.080;2023-07-13T13:36:39;20.43;68.28
66343;DHT22;53144;51.524;5.080;2023-07-13T13:41:51;21.24;66.79
66343;DHT22;53144;51.524;5.080;2023-07-13T13:44:18;21.35;66.47
66343;DHT22;53144;51.524;5.080;2023-07-13T13:46:46;21.65;64.34
66343;DHT22;53144;51.524;5.080;2023-07-13T13:49:17;21.53;66.07
66343;DHT22;53144;51.524;5.080;2023-07-13T13:51:43;21.96;65.61
66343;DHT22;53144;51.524;5.080;2023-07-13T13:54:15;22.16;65.15
66343;DHT22;53144;51.524;5.080;2023-07-13T13:56:45;22.81;63.03
66343;DHT22;53144;51.524;5.080;2023-07-13T13:59:11;22.62;61.73
66343;DHT22;53144;51.524;5.080;2023-07-13T14:01:38;22.84;61.95
66343;DHT22;53144;51.524;5.080;2023-07-13T14:04:04;22.37;61.83
66343;DHT22;53144;51.524;5.080;2023-07-13T14:06:30;21.72;62.01
66343;DHT22;53144;51.524;5.080;2023-07-13T14:08:56;21.85;62.78
66343;DHT22;53144;51.524;5.080;2023-07-13T14:11:21;21.89;62.77
66343;DHT22;53144;51.524;5.080;2023-07-13T14:13:54;21.71;62.28
66343;DHT22;53144;51.524;5.080;2023-07-13T14:16:22;21.66;63.20
66343;DHT22;53144;51.524;5.080;2023-07-13T14:18:48;21.82;63.15
66343;DHT22;53144;51.524;5.080;2023-07-13T14:21:19;21.78;63.73
66343;DHT22;53144;51.524;5.080;2023-07-13T14:23:45;21.53;64.64
66343;DHT22;53144;51.524;5.080;2023-07-13T14:26:13;21.37;66.09
66343;DHT22;53144;51.524;5.080;2023-07-13T14:28:42;21.28;67.65
66343;DHT22;53144;51.524;5.080;2023-07-13T14:31:09;21.03;65.92
66343;DHT22;53144;51.524;5.080;2023-07-13T14:33:34;21.03;66.18
66343;DHT22;53144;51.524;5.080;2023-07-13T14:36:00;20.80;65.84
66343;DHT22;53144;51.524;5.080;2023-07-13T14:38:25;20.91;66.70
66343;DHT22;53144;51.524;5.080;2023-07-13T14:40:50;21.07;67.07
66343;DHT22;53144;51.524;5.080;2023-07-13T14:43:17;20.97;66.91
66343;DHT22;53144;51.524;5.080;2023-07-13T14:45:48;21.04;66.60
66343;DHT22;53144;51.524;5.080;2023-07-13T14:48:17;21.04;66.00
66343;DHT22;53144;51.524;5.080;2023-07-13T14:50:44;21.00;66.81
66343;DHT22;53144;51.524;5.080;2023-07-13T14:53:10;20.80;66.62
66343;DHT22;53144;51.524;5.080;2023-07-13T14:55:37;20.93;67.26
66343;DHT22;53144;51.524;5.080;2023-07-13T14:58:02;21.30;67.70
66343;DHT22;53144;51.524;5.080;2023-07-13T15:00:28;21.35;69.08
66343;DHT22;53144;51.524;5.080;2023-07-13T15:02:55;21.37;69.77
66343;DHT22;53144;51.524;5.080;2023-07-13T15:05:23;21.21;71.14
66343;DHT22;53144;51.524;5.080;2023-07-13T15:07:50;21.12;71.36
66343;DHT22;53144;51.524;5.080;2023-07-13T15:10:34;20.86;71.48
66343;DHT22;53144;51.524;5.080;2023-07-13T15:13:16;20.46;71.62
66343;DHT22;53144;51.524;5.080;2023-07-13T15:15:45;20.33;69.72
66343;DHT22;53144;51.524;5.080;2023-07-13T15:18:12;20.36;72.67
66343;DHT22;53144;51.524;5.080;2023-07-13T15:20:39;20.42;71.45
66343;DHT22;53144;51.524;5.080;2023-07-13T15:23:04;20.57;72.17
66343;DHT22;53144;51.524;5.080;2023-07-13T15:25:32;20.59;71.21
66343;DHT22;53144;51.524;5.080;2023-07-13T15:27:59;20.65;70.43
66343;DHT22;53144;51.524;5.080;2023-07-13T15:30:28;20.53;69.98
66343;DHT22;53144;51.524;5.080;2023-07-13T15:33:00;20.59;70.67
66343;DHT22;53144;51.524;5.080;2023-07-13T15:35:27;20.45;70.46
66343;DHT22;53144;51.524;5.080;2023-07-13T15:37:53;20.30;71.81
66343;DHT22;53144;51.524;5.080;2023-07-13T15:40:19;20.46;71.93
66343;DHT22;53144;51.524;5.080;2023-07-13T15:42:47;20.47;71.67
66343;DHT22;53144;51.524;5.080;2023-07-13T15:45:21;20.55;71.46
66343;DHT22;53144;51.524;5.080;2023-07-13T15:47:48;20.39;72.09
66343;DHT22;53144;51.524;5.080;2023-07-13T15:50:16;20.56;73.02
66343;DHT22;53144;51.524;5.080;2023-07-13T15:52:44;20.56;71.83
66343;DHT22;53144;51.524;5.080;2023-07-13T15:55:12;20.57;72.28
66343;DHT22;53144;51.524;5.080;2023-07-13T15:57:38;20.67;73.86
66343;DHT22;53144;51.524;5.080;2023-07-13T16:00:24;20.46;72.54
66343;DHT22;53144;51.524;5.080;2023-07-13T16:02:50;20.49;72.20
66343;DHT22;53144;51.524;5.080;2023-07-13T16:05:16;20.42;72.18
66343;DHT22;53144;51.524;5.080;2023-07-13T16:07:46;20.33;72.84
66343;DHT22;53144;51.524;5.080;2023-07-13T16:10:32;20.26;72.79
66343;DHT22;53144;51.524;5.080;2023-07-13T16:12:59;20.18;73.38
66343;DHT22;53144;51.524;5.080;2023-07-13T16:15:25;20.21;73.45
66343;DHT22;53144;51.524;5.080;2023-07-13T16:17:51;20.28;73.20
66343;DHT22;53144;51.524;5.080;2023-07-13T16:20:17;20.32;73.02
66343;DHT22;53144;51.524;5.080;2023-07-13T16:22:47;20.30;72.18
66343;DHT22;53144;51.524;5.080;2023-07-13T16:25:16;20.11;73.56